Iles-de-la-Madeleine, Canada
Current Conditions -  °F | °C
As of 11:00 PM on Sunday 21 Dec 2014 (Local Time) from CYGR Reporting Station
Overcast Overcast  
Wind Chill: 18°   Ceiling: 1800
Heat Index: 25°   Visibility: 15mi
Dew Point: 21°   Wind: 6mph
Humidity: 86%   Direction: 330°NNW
Pressure: 30.43"   Gusts: NA
Location:  47.42°N, 61.77°W
Report Text: CYGR 220300Z 33005KT 15SM OVC018 M04/M06 A3043 RMK SC8 LAST OBS/NEXT 221000 UTC SLP304
Loading
Personal Weather Stations






























Interactive Weather Map New forecast layout! Learn more

10-Day Weather Forecast

Advertisements
Track Severe Weather on mobile